Time;durP1;ratioP1;P1;durP2;ratioP2;P2;SDS_P1;SDS_P2;PMS_P1;PMS_P2;Temp;Humidity;BMP_temperature;BMP_pressure;BME280_temperature;BME280_humidity;BME280_pressure;Samples;Min_cycle;Max_cycle;Signal;HPM_P1;HPM_P2
2022/04/29 00:00:30;;;;;;;;;;;14.10;60.50;;;;;;5010957;28;86159;-51
2022/04/29 00:02:56;;;;;;;;;;;14.10;60.50;;;;;;5006651;28;87014;-53
2022/04/29 00:05:22;;;;;;;;;;;14.10;60.50;;;;;;5007646;28;86992;-52
2022/04/29 00:07:47;;;;;;;;;;;14.10;60.50;;;;;;5006921;28;87887;-53
2022/04/29 00:10:14;;;;;;;;;;;14.10;60.60;;;;;;5006916;28;88521;-52
2022/04/29 00:12:41;;;;;;;;;;;14.10;60.60;;;;;;5007436;28;87269;-52
2022/04/29 00:15:07;;;;;;;;;;;14.10;60.60;;;;;;5007568;28;87134;-54
2022/04/29 00:17:33;;;;;;;;;;;14.00;60.60;;;;;;5006444;28;87676;-51
2022/04/29 00:19:59;;;;;;;;;;;14.00;60.60;;;;;;5010270;28;86987;-51
2022/04/29 00:22:25;;;;;;;;;;;14.00;60.70;;;;;;5006843;28;88315;-53
2022/04/29 00:24:51;;;;;;;;;;;14.00;60.70;;;;;;5008035;28;86213;-54
2022/04/29 00:27:17;;;;;;;;;;;14.00;60.60;;;;;;5007066;28;87253;-52
2022/04/29 00:29:42;;;;;;;;;;;14.00;60.60;;;;;;5006140;28;87519;-51
2022/04/29 00:32:08;;;;;;;;;;;14.00;60.50;;;;;;5006726;28;87814;-53
2022/04/29 00:34:34;;;;;;;;;;;14.00;60.60;;;;;;5006955;28;88897;-52
2022/04/29 00:36:59;;;;;;;;;;;14.00;60.60;;;;;;5006947;28;87409;-51
2022/04/29 00:39:25;;;;;;;;;;;14.00;60.60;;;;;;5007277;28;86846;-51
2022/04/29 00:41:51;;;;;;;;;;;14.00;60.50;;;;;;5009492;28;88178;-51
2022/04/29 00:44:17;;;;;;;;;;;13.90;60.60;;;;;;5007022;28;87106;-52
2022/04/29 00:46:44;;;;;;;;;;;13.90;60.70;;;;;;5006746;28;88109;-51
2022/04/29 00:49:13;;;;;;;;;;;13.90;60.60;;;;;;5006960;28;87825;-53
2022/04/29 00:51:42;;;;;;;;;;;13.90;60.60;;;;;;5006825;28;86843;-51
2022/04/29 00:54:09;;;;;;;;;;;13.90;60.60;;;;;;5006797;28;87860;-51
2022/04/29 00:56:37;;;;;;;;;;;13.90;60.60;;;;;;5006007;28;88792;-55
2022/04/29 00:59:05;;;;;;;;;;;13.90;60.70;;;;;;5006696;28;86859;-51
2022/04/29 01:01:33;;;;;;;;;;;13.90;60.70;;;;;;5006635;28;87117;-51
2022/04/29 01:04:01;;;;;;;;;;;13.90;60.70;;;;;;5009175;28;87487;-51
2022/04/29 01:06:27;;;;;;;;;;;13.80;60.70;;;;;;5006817;28;86815;-51
2022/04/29 01:08:53;;;;;;;;;;;13.90;60.80;;;;;;5006445;28;86904;-51
2022/04/29 01:11:25;;;;;;;;;;;13.90;60.80;;;;;;5006487;28;86971;-51
2022/04/29 01:13:51;;;;;;;;;;;13.80;60.80;;;;;;5007281;28;86789;-51
2022/04/29 01:16:17;;;;;;;;;;;13.80;60.80;;;;;;5006027;28;86951;-51
2022/04/29 01:18:43;;;;;;;;;;;13.80;60.80;;;;;;5006076;28;86992;-52
2022/04/29 01:21:09;;;;;;;;;;;13.80;60.80;;;;;;5005823;28;87966;-51
2022/04/29 01:23:35;;;;;;;;;;;13.80;60.80;;;;;;5005942;28;88876;-51
2022/04/29 01:26:01;;;;;;;;;;;13.80;60.80;;;;;;5009314;28;86843;-51
2022/04/29 01:28:28;;;;;;;;;;;13.80;60.90;;;;;;5005980;28;88572;-51
2022/04/29 01:30:55;;;;;;;;;;;13.90;60.90;;;;;;5006419;28;86868;-53
2022/04/29 01:33:21;;;;;;;;;;;13.80;60.90;;;;;;5006613;28;86857;-53
2022/04/29 01:35:47;;;;;;;;;;;13.80;60.90;;;;;;5005852;28;88304;-54
2022/04/29 01:38:12;;;;;;;;;;;13.80;61.00;;;;;;5006803;28;86336;-52
2022/04/29 01:40:38;;;;;;;;;;;13.80;60.90;;;;;;5006324;28;86835;-51
2022/04/29 01:43:04;;;;;;;;;;;13.80;61.00;;;;;;5005776;28;88463;-51
2022/04/29 01:45:29;;;;;;;;;;;13.80;60.90;;;;;;5005666;28;87794;-51
2022/04/29 01:47:55;;;;;;;;;;;13.80;60.90;;;;;;5008545;28;88035;-52
2022/04/29 01:50:20;;;;;;;;;;;13.80;61.00;;;;;;5006333;28;87017;-53
2022/04/29 01:52:46;;;;;;;;;;;13.70;60.90;;;;;;5005970;28;87064;-53
2022/04/29 01:55:12;;;;;;;;;;;13.70;61.00;;;;;;5005749;28;87448;-53
2022/04/29 01:57:37;;;;;;;;;;;13.70;61.00;;;;;;5006249;28;86910;-53
2022/04/29 02:00:04;;;;;;;;;;;13.70;61.10;;;;;;5006006;28;87903;-51
2022/04/29 02:02:30;;;;;;;;;;;13.70;61.00;;;;;;5006101;28;87700;-52
2022/04/29 02:04:56;;;;;;;;;;;13.70;61.00;;;;;;5005244;28;86945;-52
2022/04/29 02:07:21;;;;;;;;;;;13.70;60.90;;;;;;5008431;28;88120;-51
2022/04/29 02:09:47;;;;;;;;;;;13.70;61.00;;;;;;5005334;28;87712;-52
2022/04/29 02:12:14;;;;;;;;;;;13.70;61.00;;;;;;5005834;28;88727;-51
2022/04/29 02:14:42;;;;;;;;;;;13.70;61.10;;;;;;5005430;28;88531;-51
2022/04/29 02:17:08;;;;;;;;;;;13.70;61.10;;;;;;5005472;28;87098;-51
2022/04/29 02:19:34;;;;;;;;;;;13.60;61.10;;;;;;5005986;28;86962;-53
2022/04/29 02:22:01;;;;;;;;;;;13.60;61.10;;;;;;5005296;28;87982;-51
2022/04/29 02:24:27;;;;;;;;;;;13.60;61.10;;;;;;5005664;28;86946;-50
2022/04/29 02:26:54;;;;;;;;;;;13.60;61.10;;;;;;5006428;28;86113;-51
2022/04/29 02:29:20;;;;;;;;;;;13.60;61.20;;;;;;5008139;28;88448;-51
2022/04/29 02:31:46;;;;;;;;;;;13.60;61.20;;;;;;5009085;28;88055;-50
2022/04/29 02:34:11;;;;;;;;;;;13.60;61.20;;;;;;5007995;28;89572;-51
2022/04/29 02:36:37;;;;;;;;;;;13.60;61.20;;;;;;5009041;28;86886;-53
2022/04/29 02:39:03;;;;;;;;;;;13.60;61.20;;;;;;5008893;28;87834;-51
2022/04/29 02:41:29;;;;;;;;;;;13.60;61.20;;;;;;5008566;28;88428;-50
2022/04/29 02:43:54;;;;;;;;;;;13.50;61.30;;;;;;5008884;28;87085;-51
2022/04/29 02:46:20;;;;;;;;;;;13.50;61.30;;;;;;5008895;28;88035;-54
2022/04/29 02:48:48;;;;;;;;;;;13.50;61.30;;;;;;5008507;28;87414;-52
2022/04/29 02:51:15;;;;;;;;;;;13.50;61.30;;;;;;5011877;28;86097;-51
2022/04/29 02:53:41;;;;;;;;;;;13.50;61.30;;;;;;5008436;28;88640;-50
2022/04/29 02:56:06;;;;;;;;;;;13.50;62.00;;;;;;5008668;28;86870;-50
2022/04/29 02:58:32;;;;;;;;;;;13.50;61.40;;;;;;5008157;28;87802;-50
2022/04/29 03:00:59;;;;;;;;;;;13.50;61.30;;;;;;5007949;28;87562;-51
2022/04/29 03:03:24;;;;;;;;;;;13.50;61.30;;;;;;5008488;28;86847;-51
2022/04/29 03:05:50;;;;;;;;;;;13.50;61.30;;;;;;5008440;28;88000;-50
2022/04/29 03:08:16;;;;;;;;;;;13.50;61.30;;;;;;5008275;28;87360;-51
2022/04/29 03:10:41;;;;;;;;;;;13.50;61.30;;;;;;5008456;28;86942;-52
2022/04/29 03:13:07;;;;;;;;;;;13.50;61.30;;;;;;5011016;28;87131;-52
2022/04/29 03:15:33;;;;;;;;;;;13.50;61.30;;;;;;5008751;28;86152;-50
2022/04/29 03:20:43;;;;;;;;;;;13.50;61.40;;;;;;5004913;28;87386;-54
2022/04/29 03:23:09;;;;;;;;;;;13.40;61.40;;;;;;5007629;28;87823;-50
2022/04/29 03:25:35;;;;;;;;;;;13.40;61.40;;;;;;5008427;28;86955;-50
2022/04/29 03:28:02;;;;;;;;;;;13.40;61.40;;;;;;5007850;28;88175;-50
2022/04/29 03:30:27;;;;;;;;;;;13.40;61.30;;;;;;5008388;28;86936;-51
2022/04/29 03:32:57;;;;;;;;;;;13.40;61.40;;;;;;5008215;28;88273;-50
2022/04/29 03:35:23;;;;;;;;;;;13.40;61.50;;;;;;5010598;28;87603;-51
2022/04/29 03:37:51;;;;;;;;;;;13.40;61.50;;;;;;5008425;28;86839;-51
2022/04/29 03:40:18;;;;;;;;;;;13.40;61.60;;;;;;5007636;28;87745;-50
2022/04/29 03:42:43;;;;;;;;;;;13.40;61.60;;;;;;5007959;28;87103;-50
2022/04/29 03:45:09;;;;;;;;;;;13.30;61.70;;;;;;5007901;28;87036;-51
2022/04/29 03:47:35;;;;;;;;;;;13.30;61.60;;;;;;5007110;28;88499;-50
2022/04/29 03:50:01;;;;;;;;;;;13.30;61.50;;;;;;5008040;28;86882;-50
2022/04/29 03:52:27;;;;;;;;;;;13.30;61.60;;;;;;5007995;28;87794;-52
2022/04/29 03:54:53;;;;;;;;;;;13.30;61.60;;;;;;5007719;28;87421;-50
2022/04/29 03:57:18;;;;;;;;;;;13.30;61.50;;;;;;5010692;28;86889;-51
2022/04/29 03:59:44;;;;;;;;;;;13.30;61.60;;;;;;5007569;28;87353;-52
2022/04/29 04:02:10;;;;;;;;;;;13.40;61.60;;;;;;5007600;28;87005;-50
2022/04/29 04:04:35;;;;;;;;;;;13.30;61.40;;;;;;5008428;28;86141;-50
2022/04/29 04:07:01;;;;;;;;;;;13.30;61.50;;;;;;5007272;28;87736;-51
2022/04/29 04:09:27;;;;;;;;;;;13.30;61.50;;;;;;5007507;28;86879;-50
2022/04/29 04:11:53;;;;;;;;;;;13.30;61.60;;;;;;5006339;28;87839;-50
2022/04/29 04:14:19;;;;;;;;;;;13.30;61.60;;;;;;5007393;28;87789;-50
2022/04/29 04:16:45;;;;;;;;;;;13.30;61.50;;;;;;5009945;28;86927;-51
2022/04/29 04:19:11;;;;;;;;;;;13.30;61.50;;;;;;5006840;28;87891;-51
2022/04/29 04:21:36;;;;;;;;;;;13.30;61.60;;;;;;5007263;28;86942;-51
2022/04/29 04:24:02;;;;;;;;;;;13.30;61.50;;;;;;5007280;28;87887;-50
2022/04/29 04:26:28;;;;;;;;;;;13.30;61.50;;;;;;5006838;28;88597;-51
2022/04/29 04:28:54;;;;;;;;;;;13.30;61.50;;;;;;5007916;28;86190;-51
2022/04/29 04:31:21;;;;;;;;;;;13.30;61.70;;;;;;5007421;28;86820;-52
2022/04/29 04:33:48;;;;;;;;;;;13.20;61.60;;;;;;5006792;28;87614;-52
2022/04/29 04:36:13;;;;;;;;;;;13.20;61.70;;;;;;5006472;28;87922;-55
2022/04/29 04:38:39;;;;;;;;;;;13.20;61.50;;;;;;5009571;28;88120;-50
2022/04/29 04:41:07;;;;;;;;;;;13.20;61.60;;;;;;5006895;28;86845;-50
2022/04/29 04:43:33;;;;;;;;;;;13.20;61.60;;;;;;5007211;28;87108;-50
2022/04/29 04:45:59;;;;;;;;;;;13.20;61.70;;;;;;5006448;28;88729;-53
2022/04/29 04:48:25;;;;;;;;;;;13.20;61.60;;;;;;5006872;28;86879;-51
2022/04/29 04:50:51;;;;;;;;;;;13.20;61.70;;;;;;5006886;28;86928;-50
2022/04/29 04:53:17;;;;;;;;;;;13.20;61.60;;;;;;5006365;28;86126;-51
2022/04/29 04:55:42;;;;;;;;;;;13.20;61.60;;;;;;5006905;28;86875;-50
2022/04/29 04:58:09;;;;;;;;;;;13.20;61.60;;;;;;5006788;28;87778;-52
2022/04/29 05:00:36;;;;;;;;;;;13.20;61.60;;;;;;5007926;28;88299;-50
2022/04/29 05:03:02;;;;;;;;;;;13.20;61.60;;;;;;5006718;28;88008;-50
2022/04/29 05:05:27;;;;;;;;;;;13.20;61.60;;;;;;5006323;28;88319;-50
2022/04/29 05:07:53;;;;;;;;;;;13.20;61.50;;;;;;5006702;28;86999;-50
2022/04/29 05:10:20;;;;;;;;;;;13.20;61.50;;;;;;5006915;28;87152;-50
2022/04/29 05:12:46;;;;;;;;;;;13.20;61.60;;;;;;5005477;28;87322;-51
2022/04/29 05:15:13;;;;;;;;;;;13.20;61.70;;;;;;5006512;28;86982;-50
2022/04/29 05:17:40;;;;;;;;;;;13.20;61.70;;;;;;5006668;28;86932;-50
2022/04/29 05:20:10;;;;;;;;;;;13.20;61.70;;;;;;5006111;28;88939;-50
2022/04/29 05:22:36;;;;;;;;;;;13.20;61.70;;;;;;5009526;28;86847;-50
2022/04/29 05:25:02;;;;;;;;;;;13.20;61.60;;;;;;5005107;28;88570;-50
2022/04/29 05:27:28;;;;;;;;;;;13.20;61.70;;;;;;5006406;28;86866;-51
2022/04/29 05:29:54;;;;;;;;;;;13.20;61.70;;;;;;5006258;28;87169;-51
2022/04/29 05:32:20;;;;;;;;;;;13.20;61.70;;;;;;5005939;28;87608;-52
2022/04/29 05:34:46;;;;;;;;;;;13.20;61.70;;;;;;5006406;28;86867;-50
2022/04/29 05:37:12;;;;;;;;;;;13.20;61.70;;;;;;5006223;28;87999;-51
2022/04/29 05:42:23;;;;;;;;;;;13.20;61.60;;;;;;5006942;28;86113;-50
2022/04/29 05:44:49;;;;;;;;;;;13.20;61.60;;;;;;5008672;28;87208;-51
2022/04/29 05:47:14;;;;;;;;;;;13.20;62.40;;;;;;5005532;28;86974;-50
2022/04/29 05:49:40;;;;;;;;;;;13.20;61.70;;;;;;5004762;28;87855;-50
2022/04/29 05:52:07;;;;;;;;;;;13.20;61.70;;;;;;5005067;28;87589;-51
2022/04/29 05:54:32;;;;;;;;;;;13.20;61.70;;;;;;5005353;28;86900;-50
2022/04/29 05:56:58;;;;;;;;;;;13.20;61.60;;;;;;5005346;28;87851;-52
2022/04/29 05:59:24;;;;;;;;;;;13.20;61.50;;;;;;5005157;28;86892;-51
2022/04/29 06:01:49;;;;;;;;;;;13.20;61.60;;;;;;5005419;28;86884;-53
2022/04/29 06:04:15;;;;;;;;;;;13.20;61.60;;;;;;5006994;28;87037;-51
2022/04/29 06:06:40;;;;;;;;;;;13.30;61.60;;;;;;5012016;28;87822;-50
2022/04/29 06:09:06;;;;;;;;;;;13.20;61.50;;;;;;5008870;28;87244;-50
2022/04/29 06:11:32;;;;;;;;;;;13.20;61.60;;;;;;5008545;28;87518;-53
2022/04/29 06:13:57;;;;;;;;;;;13.20;61.50;;;;;;5008161;28;87724;-51
2022/04/29 06:16:23;;;;;;;;;;;13.20;61.50;;;;;;5008574;28;88930;-52
2022/04/29 06:18:48;;;;;;;;;;;13.20;61.50;;;;;;5008451;28;88860;-52
2022/04/29 06:21:16;;;;;;;;;;;13.20;61.60;;;;;;5008598;28;86919;-50
2022/04/29 06:23:42;;;;;;;;;;;13.20;61.60;;;;;;5008820;28;87243;-51
2022/04/29 06:26:08;;;;;;;;;;;13.20;61.70;;;;;;5011402;28;86879;-51
2022/04/29 06:28:34;;;;;;;;;;;13.20;61.60;;;;;;5008857;28;86854;-51
2022/04/29 06:31:01;;;;;;;;;;;13.20;61.70;;;;;;5008652;28;87742;-51
2022/04/29 06:33:28;;;;;;;;;;;13.20;61.70;;;;;;5008548;28;86886;-50
2022/04/29 06:35:54;;;;;;;;;;;13.30;61.60;;;;;;5008704;28;87001;-50
2022/04/29 06:38:20;;;;;;;;;;;13.30;61.80;;;;;;5007616;28;88320;-53
2022/04/29 06:40:45;;;;;;;;;;;13.20;61.70;;;;;;5008475;28;86847;-51
2022/04/29 06:43:11;;;;;;;;;;;13.20;61.70;;;;;;5008329;28;87890;-51
2022/04/29 06:45:36;;;;;;;;;;;13.20;61.80;;;;;;5007965;28;88415;-50
2022/04/29 06:48:02;;;;;;;;;;;13.20;61.70;;;;;;5011478;28;87194;-53
2022/04/29 06:50:28;;;;;;;;;;;13.30;61.70;;;;;;5007862;28;88887;-50
2022/04/29 06:52:53;;;;;;;;;;;13.20;61.70;;;;;;5008336;28;87180;-50
2022/04/29 06:55:19;;;;;;;;;;;13.20;61.70;;;;;;5008852;28;86091;-50
2022/04/29 06:57:46;;;;;;;;;;;13.30;61.80;;;;;;5007722;28;88650;-52
2022/04/29 07:00:12;;;;;;;;;;;13.30;61.80;;;;;;5008073;28;87001;-51
2022/04/29 07:02:38;;;;;;;;;;;13.20;61.80;;;;;;5007853;28;87787;-54
2022/04/29 07:05:04;;;;;;;;;;;13.20;61.80;;;;;;5007636;28;88703;-50
2022/04/29 07:07:29;;;;;;;;;;;13.20;61.80;;;;;;5007954;28;86859;-50
2022/04/29 07:09:55;;;;;;;;;;;13.30;61.80;;;;;;5010395;28;88380;-51
2022/04/29 07:12:20;;;;;;;;;;;13.20;61.80;;;;;;5007965;28;86849;-50
2022/04/29 07:14:46;;;;;;;;;;;13.20;61.70;;;;;;5008090;28;86911;-52
2022/04/29 07:17:12;;;;;;;;;;;13.30;61.80;;;;;;5006347;28;87649;-52
2022/04/29 07:19:38;;;;;;;;;;;13.30;61.70;;;;;;5008506;28;86513;-50
2022/04/29 07:22:04;;;;;;;;;;;13.30;61.70;;;;;;5007878;28;87199;-50
2022/04/29 07:24:29;;;;;;;;;;;13.30;61.70;;;;;;5007298;28;87797;-52
2022/04/29 07:26:56;;;;;;;;;;;13.30;61.70;;;;;;5007005;28;87799;-52
2022/04/29 07:29:22;;;;;;;;;;;13.30;61.80;;;;;;5007727;28;89124;-51
2022/04/29 07:31:48;;;;;;;;;;;13.30;61.80;;;;;;5010346;28;86992;-55
2022/04/29 07:34:14;;;;;;;;;;;13.30;62.00;;;;;;5007821;28;88198;-53
2022/04/29 07:42:07;;;;;;;;;;;13.20;61.90;;;;;;5004659;28;86857;-52
2022/04/29 07:44:36;;;;;;;;;;;13.30;61.90;;;;;;5007763;28;86906;-52
2022/04/29 07:47:02;;;;;;;;;;;13.30;61.90;;;;;;5007718;28;86818;-54
2022/04/29 07:49:28;;;;;;;;;;;13.30;61.90;;;;;;5007244;28;88011;-51
2022/04/29 07:51:54;;;;;;;;;;;13.30;61.90;;;;;;5006351;28;88416;-51
2022/04/29 07:54:20;;;;;;;;;;;13.20;62.00;;;;;;5009900;28;86899;-52
2022/04/29 07:56:46;;;;;;;;;;;13.20;62.00;;;;;;5006786;28;88537;-52
2022/04/29 07:59:11;;;;;;;;;;;13.30;62.10;;;;;;5007088;28;86880;-53
2022/04/29 08:01:40;;;;;;;;;;;13.30;62.10;;;;;;5007147;28;88013;-51
2022/04/29 08:04:05;;;;;;;;;;;13.30;62.00;;;;;;5006621;28;88700;-50
2022/04/29 08:06:32;;;;;;;;;;;13.20;62.00;;;;;;5006986;28;86864;-50
2022/04/29 08:08:57;;;;;;;;;;;13.30;62.00;;;;;;5007695;28;87014;-54
2022/04/29 08:11:24;;;;;;;;;;;13.30;61.80;;;;;;5006739;28;87083;-51
2022/04/29 08:13:49;;;;;;;;;;;13.30;61.90;;;;;;5006827;28;86871;-50
2022/04/29 08:16:15;;;;;;;;;;;13.30;61.80;;;;;;5008556;28;88432;-50
2022/04/29 08:18:41;;;;;;;;;;;13.30;61.90;;;;;;5006807;28;86868;-50
2022/04/29 08:21:07;;;;;;;;;;;13.30;61.90;;;;;;5006865;28;87966;-54
2022/04/29 08:23:32;;;;;;;;;;;13.30;61.80;;;;;;5006811;28;86885;-51
2022/04/29 08:25:58;;;;;;;;;;;13.30;61.80;;;;;;5007234;28;86927;-51
2022/04/29 08:28:25;;;;;;;;;;;13.30;61.80;;;;;;5006660;28;87687;-51
2022/04/29 08:30:52;;;;;;;;;;;13.30;61.80;;;;;;5006366;28;88515;-51
2022/04/29 08:33:17;;;;;;;;;;;13.30;61.80;;;;;;5007110;28;86611;-50
2022/04/29 08:35:44;;;;;;;;;;;13.30;61.80;;;;;;5009243;28;87500;-52
2022/04/29 08:38:10;;;;;;;;;;;13.30;61.90;;;;;;5006542;28;86918;-51
2022/04/29 08:40:40;;;;;;;;;;;13.40;61.80;;;;;;5005878;28;88049;-50
2022/04/29 08:43:05;;;;;;;;;;;13.40;61.70;;;;;;5006476;28;87518;-51
2022/04/29 08:45:31;;;;;;;;;;;13.50;61.70;;;;;;5006379;28;87008;-51
2022/04/29 08:47:57;;;;;;;;;;;13.50;61.60;;;;;;5006696;28;86929;-52
2022/04/29 08:50:23;;;;;;;;;;;13.50;61.70;;;;;;5005953;28;87787;-51
2022/04/29 08:52:49;;;;;;;;;;;13.40;61.70;;;;;;5006223;28;87018;-50
2022/04/29 09:00:44;;;;;;;;;;;13.40;61.70;;;;;;5006548;28;86766;-51
2022/04/29 09:03:14;;;;;;;;;;;13.50;61.80;;;;;;5005809;28;87742;-51
2022/04/29 09:05:40;;;;;;;;;;;13.50;61.80;;;;;;5005518;28;87870;-51
2022/04/29 09:08:06;;;;;;;;;;;13.50;61.90;;;;;;5006138;28;88953;-51
2022/04/29 09:10:35;;;;;;;;;;;13.50;61.80;;;;;;5005809;28;86906;-52
2022/04/29 09:13:11;;;;;;;;;;;13.40;61.90;;;;;;5006073;28;86931;-51
2022/04/29 09:15:36;;;;;;;;;;;13.50;61.90;;;;;;5005806;28;87078;-53
2022/04/29 09:18:02;;;;;;;;;;;13.50;61.80;;;;;;5005916;28;87645;-50
2022/04/29 09:20:28;;;;;;;;;;;13.50;61.90;;;;;;5008919;28;86911;-51
2022/04/29 09:22:53;;;;;;;;;;;13.50;61.90;;;;;;5006034;28;87688;-50
2022/04/29 09:25:19;;;;;;;;;;;13.50;61.90;;;;;;5006085;28;87037;-52
2022/04/29 09:27:55;;;;;;;;;;;13.50;61.80;;;;;;5006401;28;87350;-53
2022/04/29 09:30:40;;;;;;;;;;;13.50;61.70;;;;;;5003933;28;87866;-50
2022/04/29 09:33:07;;;;;;;;;;;13.50;61.80;;;;;;5006116;28;86891;-51
2022/04/29 09:35:36;;;;;;;;;;;13.50;61.80;;;;;;5006066;28;86930;-52
2022/04/29 09:40:46;;;;;;;;;;;13.60;61.90;;;;;;5005963;28;86814;-51
2022/04/29 09:43:12;;;;;;;;;;;13.50;61.80;;;;;;5008415;28;86873;-52
2022/04/29 09:45:38;;;;;;;;;;;13.60;61.80;;;;;;5005597;28;86875;-50
2022/04/29 09:48:07;;;;;;;;;;;13.60;61.60;;;;;;5006199;28;88092;-50
2022/04/29 09:50:46;;;;;;;;;;;13.60;61.70;;;;;;5005036;28;89435;-53
2022/04/29 09:53:15;;;;;;;;;;;13.60;61.90;;;;;;5005502;28;86871;-51
2022/04/29 09:55:41;;;;;;;;;;;13.60;62.00;;;;;;5005022;28;87790;-51
2022/04/29 09:58:09;;;;;;;;;;;13.60;61.80;;;;;;5005330;28;87499;-50
2022/04/29 10:00:35;;;;;;;;;;;13.60;61.90;;;;;;5005731;28;86770;-50
2022/04/29 10:03:03;;;;;;;;;;;13.60;61.80;;;;;;5005824;28;86842;-50
2022/04/29 10:05:30;;;;;;;;;;;13.60;61.80;;;;;;5007866;28;87692;-50
2022/04/29 10:07:56;;;;;;;;;;;13.70;61.90;;;;;;5005346;28;87965;-51
2022/04/29 10:10:24;;;;;;;;;;;13.60;62.00;;;;;;5005258;28;86983;-51
2022/04/29 10:12:50;;;;;;;;;;;13.60;62.00;;;;;;5006106;28;86221;-50
2022/04/29 10:15:17;;;;;;;;;;;13.60;62.10;;;;;;5005242;28;87597;-52
2022/04/29 10:23:15;;;;;;;;;;;13.50;62.40;;;;;;5005564;28;87429;-50
2022/04/29 10:25:42;;;;;;;;;;;13.50;62.30;;;;;;5004654;28;88669;-50
2022/04/29 10:28:08;;;;;;;;;;;13.50;62.60;;;;;;5007854;28;86922;-51
2022/04/29 10:30:35;;;;;;;;;;;13.50;62.20;;;;;;5004696;28;87713;-53
2022/04/29 10:33:05;;;;;;;;;;;13.50;62.20;;;;;;5005512;28;86893;-52
2022/04/29 10:35:39;;;;;;;;;;;13.50;62.40;;;;;;5005497;28;87685;-51
2022/04/29 10:38:11;;;;;;;;;;;13.60;62.20;;;;;;5005125;28;86976;-50
2022/04/29 10:40:37;;;;;;;;;;;13.60;62.20;;;;;;5004809;28;87010;-50
2022/04/29 10:43:10;;;;;;;;;;;13.50;62.60;;;;;;5005031;28;88026;-51
2022/04/29 10:45:36;;;;;;;;;;;13.50;62.40;;;;;;5003974;28;88609;-52
2022/04/29 10:48:21;;;;;;;;;;;13.60;62.20;;;;;;5007813;28;86944;-52
2022/04/29 10:50:46;;;;;;;;;;;13.60;62.20;;;;;;5005403;28;87482;-51
2022/04/29 10:53:12;;;;;;;;;;;13.60;62.30;;;;;;5008744;28;86864;-53
2022/04/29 10:55:37;;;;;;;;;;;13.70;62.00;;;;;;5008479;28;87100;-51
2022/04/29 10:58:04;;;;;;;;;;;13.70;62.40;;;;;;5007858;28;88452;-51
2022/04/29 11:00:30;;;;;;;;;;;13.70;62.10;;;;;;5008110;28;86850;-51
2022/04/29 11:03:16;;;;;;;;;;;13.60;62.20;;;;;;5008635;28;88027;-53
2022/04/29 11:05:42;;;;;;;;;;;13.70;62.10;;;;;;5007542;28;86878;-53
2022/04/29 11:08:09;;;;;;;;;;;13.60;62.00;;;;;;5008037;28;86866;-51
2022/04/29 11:10:53;;;;;;;;;;;13.70;62.00;;;;;;5009816;28;87852;-52
2022/04/29 11:13:23;;;;;;;;;;;13.70;62.10;;;;;;5008071;28;86846;-53
2022/04/29 11:15:49;;;;;;;;;;;13.60;62.20;;;;;;5007679;28;88024;-50
2022/04/29 11:18:25;;;;;;;;;;;13.60;62.40;;;;;;5007577;28;88579;-51
2022/04/29 11:20:59;;;;;;;;;;;13.70;62.00;;;;;;5007843;28;86903;-50
2022/04/29 11:26:15;;;;;;;;;;;13.70;62.00;;;;;;5007712;28;87128;-52
2022/04/29 11:28:41;;;;;;;;;;;13.70;62.20;;;;;;5008190;28;86179;-51
2022/04/29 11:31:08;;;;;;;;;;;13.70;62.00;;;;;;5007670;28;87183;-51
2022/04/29 11:33:34;;;;;;;;;;;13.70;62.30;;;;;;5010071;28;87661;-51
2022/04/29 11:36:00;;;;;;;;;;;13.70;62.20;;;;;;5006885;28;87905;-52
2022/04/29 11:38:26;;;;;;;;;;;13.80;62.10;;;;;;5006669;28;87423;-51
2022/04/29 11:40:52;;;;;;;;;;;13.80;62.10;;;;;;5007424;28;86911;-51
2022/04/29 11:43:22;;;;;;;;;;;13.80;62.30;;;;;;5007637;28;87128;-51
2022/04/29 11:45:58;;;;;;;;;;;13.80;61.90;;;;;;5007028;28;87764;-50
2022/04/29 11:48:23;;;;;;;;;;;13.80;61.90;;;;;;5007283;28;86923;-50
2022/04/29 11:50:49;;;;;;;;;;;13.80;62.00;;;;;;5007204;28;88272;-51
2022/04/29 11:53:14;;;;;;;;;;;13.80;62.40;;;;;;5007702;28;87010;-50
2022/04/29 11:55:40;;;;;;;;;;;13.90;62.00;;;;;;5010229;28;87324;-51
2022/04/29 11:58:06;;;;;;;;;;;13.90;61.90;;;;;;5007114;28;87456;-52
2022/04/29 12:00:34;;;;;;;;;;;13.90;61.90;;;;;;5006756;28;87900;-50
2022/04/29 12:03:00;;;;;;;;;;;14.00;62.60;;;;;;5006783;28;88260;-50
2022/04/29 12:05:26;;;;;;;;;;;13.90;61.90;;;;;;5006663;28;88456;-51
2022/04/29 12:07:52;;;;;;;;;;;13.90;62.00;;;;;;5007238;28;86916;-51
2022/04/29 12:10:26;;;;;;;;;;;13.90;62.20;;;;;;5007076;28;87420;-51
2022/04/29 12:13:02;;;;;;;;;;;13.90;62.10;;;;;;5006713;28;88494;-52
2022/04/29 12:15:32;;;;;;;;;;;14.00;62.00;;;;;;5006726;28;87276;-52
2022/04/29 12:17:58;;;;;;;;;;;14.00;62.00;;;;;;4989865;28;87818;-52
2022/04/29 12:20:25;;;;;;;;;;;14.00;62.00;;;;;;4986737;28;86788;-51
2022/04/29 12:22:52;;;;;;;;;;;14.00;62.00;;;;;;4986901;28;88396;-53
2022/04/29 12:25:23;;;;;;;;;;;14.00;62.00;;;;;;4985709;28;88679;-51
2022/04/29 12:28:07;;;;;;;;;;;14.10;61.80;;;;;;4986859;28;86904;-54
2022/04/29 12:36:05;;;;;;;;;;;14.20;61.60;;;;;;4987002;28;86873;-51
2022/04/29 12:38:38;;;;;;;;;;;14.20;61.50;;;;;;4989145;28;87938;-51
2022/04/29 12:41:25;;;;;;;;;;;14.30;61.50;;;;;;4986582;28;87299;-51
2022/04/29 12:43:51;;;;;;;;;;;14.20;61.60;;;;;;4987452;28;87451;-52
2022/04/29 12:46:18;;;;;;;;;;;14.20;61.70;;;;;;4986463;28;86987;-51
2022/04/29 12:48:51;;;;;;;;;;;14.30;61.60;;;;;;4986614;28;86920;-51
2022/04/29 12:51:34;;;;;;;;;;;14.20;61.60;;;;;;4985877;28;87928;-51
2022/04/29 12:54:00;;;;;;;;;;;14.20;61.50;;;;;;4986099;28;88617;-52
2022/04/29 12:56:31;;;;;;;;;;;14.30;61.50;;;;;;4986580;28;86893;-51
2022/04/29 12:58:57;;;;;;;;;;;14.30;61.40;;;;;;4986537;28;87911;-51
2022/04/29 13:01:23;;;;;;;;;;;14.40;61.20;;;;;;4988979;28;88599;-52
2022/04/29 13:03:50;;;;;;;;;;;14.30;61.30;;;;;;4986471;28;87930;-52
2022/04/29 13:06:17;;;;;;;;;;;14.30;61.40;;;;;;4986227;28;86962;-55
2022/04/29 13:08:43;;;;;;;;;;;14.30;61.60;;;;;;4986152;28;86333;-55
2022/04/29 13:11:14;;;;;;;;;;;14.30;61.40;;;;;;4986528;28;87059;-53
2022/04/29 13:13:39;;;;;;;;;;;14.30;61.40;;;;;;4985039;28;88539;-54
2022/04/29 13:16:05;;;;;;;;;;;14.40;61.20;;;;;;4989785;28;87896;-52
2022/04/29 13:18:30;;;;;;;;;;;14.40;61.20;;;;;;5006270;28;88641;-56
2022/04/29 13:20:59;;;;;;;;;;;14.40;60.90;;;;;;5005910;28;87405;-64
2022/04/29 13:23:24;;;;;;;;;;;14.40;60.60;;;;;;5009173;28;86959;-61
2022/04/29 13:28:25;;;;;;;;;;;14.50;60.60;;;;;;5186596;22;87856;-53
2022/04/29 13:30:51;;;;;;;;;;;14.40;60.90;;;;;;5011147;28;88045;-49
2022/04/29 13:33:17;;;;;;;;;;;14.50;60.90;;;;;;5013415;28;86200;-50
2022/04/29 13:35:42;;;;;;;;;;;14.50;59.80;;;;;;5006504;28;87175;-51
2022/04/29 13:38:10;;;;;;;;;;;14.60;59.70;;;;;;5006321;28;88121;-51
2022/04/29 13:40:35;;;;;;;;;;;14.60;58.90;;;;;;5005178;28;89674;-50
2022/04/29 13:43:01;;;;;;;;;;;14.60;58.70;;;;;;5006259;28;86949;-51
2022/04/29 13:45:28;;;;;;;;;;;14.60;59.20;;;;;;4660227;28;10001643;-52
2022/04/29 13:47:54;;;;;;;;;;;14.70;58.70;;;;;;5006577;28;86911;-49
2022/04/29 13:50:19;;;;;;;;;;;14.70;59.00;;;;;;5005763;28;88568;-53
2022/04/29 13:55:30;;;;;;;;;;;14.90;58.50;;;;;;5006486;28;86854;-51
2022/04/29 13:57:56;;;;;;;;;;;14.90;58.30;;;;;;5005624;28;86984;-51
2022/04/29 14:00:22;;;;;;;;;;;15.00;58.60;;;;;;5006226;28;87074;-52
2022/04/29 14:02:47;;;;;;;;;;;15.00;58.20;;;;;;5006110;28;87237;-49
2022/04/29 14:05:14;;;;;;;;;;;15.00;57.30;;;;;;5004875;28;88353;-49
2022/04/29 14:07:40;;;;;;;;;;;14.90;57.20;;;;;;5008610;28;87054;-51
2022/04/29 14:10:06;;;;;;;;;;;15.00;57.50;;;;;;5005447;28;88194;-54
2022/04/29 14:12:33;;;;;;;;;;;15.00;57.90;;;;;;5005782;28;87036;-52
2022/04/29 14:14:59;;;;;;;;;;;15.00;57.30;;;;;;5004979;28;86945;-51
2022/04/29 14:17:24;;;;;;;;;;;15.00;57.80;;;;;;5005338;28;89117;-53
2022/04/29 14:19:50;;;;;;;;;;;15.00;57.00;;;;;;5005680;28;87059;-54
2022/04/29 14:22:16;;;;;;;;;;;15.00;57.20;;;;;;5006467;28;86774;-51
2022/04/29 14:24:41;;;;;;;;;;;15.00;57.40;;;;;;5006324;28;87413;-57
2022/04/29 14:27:07;;;;;;;;;;;15.10;57.50;;;;;;5008877;28;86966;-52
2022/04/29 14:29:36;;;;;;;;;;;15.00;57.40;;;;;;5011291;28;87713;-52
2022/04/29 14:32:02;;;;;;;;;;;15.10;57.30;;;;;;5009109;28;86876;-52
2022/04/29 14:34:28;;;;;;;;;;;15.30;57.30;;;;;;5009083;28;87797;-57
2022/04/29 14:36:54;;;;;;;;;;;15.30;57.00;;;;;;5008617;28;87647;-61
2022/04/29 14:39:19;;;;;;;;;;;15.40;56.90;;;;;;5009250;28;87103;-57
2022/04/29 14:41:48;;;;;;;;;;;15.50;56.20;;;;;;5008982;28;87854;-53
2022/04/29 14:44:14;;;;;;;;;;;15.60;55.90;;;;;;5008440;28;87717;-61
2022/04/29 14:46:42;;;;;;;;;;;15.60;55.70;;;;;;5009400;28;86157;-51
2022/04/29 14:49:09;;;;;;;;;;;15.60;55.30;;;;;;5011570;28;86851;-62
2022/04/29 14:51:36;;;;;;;;;;;15.60;55.90;;;;;;5008704;28;87070;-56